sensor_id;sensor_type;location;lat;lon;timestamp;P1;durP1;ratioP1;P2;durP2;ratioP2
57643;SDS011;43474;46.510;6.686;2022-08-14T00:01:06;2.17;;;1.52;;
57643;SDS011;43474;46.510;6.686;2022-08-14T00:03:32;2.25;;;1.67;;
57643;SDS011;43474;46.510;6.686;2022-08-14T00:05:59;2.33;;;1.80;;
57643;SDS011;43474;46.510;6.686;2022-08-14T00:08:26;3.58;;;1.77;;
57643;SDS011;43474;46.510;6.686;2022-08-14T00:10:51;1.98;;;1.77;;
57643;SDS011;43474;46.510;6.686;2022-08-14T00:13:19;2.08;;;1.70;;
57643;SDS011;43474;46.510;6.686;2022-08-14T00:15:47;3.45;;;1.65;;
57643;SDS011;43474;46.510;6.686;2022-08-14T00:18:15;4.57;;;1.70;;
57643;SDS011;43474;46.510;6.686;2022-08-14T00:20:44;2.67;;;1.80;;
57643;SDS011;43474;46.510;6.686;2022-08-14T00:23:10;2.25;;;1.90;;
57643;SDS011;43474;46.510;6.686;2022-08-14T00:25:37;2.00;;;1.77;;
57643;SDS011;43474;46.510;6.686;2022-08-14T00:28:04;2.00;;;1.80;;
57643;SDS011;43474;46.510;6.686;2022-08-14T00:30:33;4.32;;;1.90;;
57643;SDS011;43474;46.510;6.686;2022-08-14T00:32:58;2.65;;;1.90;;
57643;SDS011;43474;46.510;6.686;2022-08-14T00:35:24;4.97;;;1.80;;
57643;SDS011;43474;46.510;6.686;2022-08-14T00:37:51;2.85;;;1.83;;
57643;SDS011;43474;46.510;6.686;2022-08-14T00:40:17;3.75;;;1.75;;
57643;SDS011;43474;46.510;6.686;2022-08-14T00:42:44;4.18;;;1.80;;
57643;SDS011;43474;46.510;6.686;2022-08-14T00:45:11;3.15;;;1.83;;
57643;SDS011;43474;46.510;6.686;2022-08-14T00:47:39;1.65;;;1.55;;
57643;SDS011;43474;46.510;6.686;2022-08-14T00:50:06;2.05;;;1.73;;
57643;SDS011;43474;46.510;6.686;2022-08-14T00:52:34;3.28;;;1.65;;
57643;SDS011;43474;46.510;6.686;2022-08-14T00:54:59;2.80;;;1.83;;
57643;SDS011;43474;46.510;6.686;2022-08-14T00:57:26;3.03;;;1.90;;
57643;SDS011;43474;46.510;6.686;2022-08-14T00:59:53;2.15;;;1.73;;
57643;SDS011;43474;46.510;6.686;2022-08-14T01:02:21;3.22;;;1.70;;
57643;SDS011;43474;46.510;6.686;2022-08-14T01:04:52;2.90;;;2.05;;
57643;SDS011;43474;46.510;6.686;2022-08-14T01:07:23;2.42;;;1.83;;
57643;SDS011;43474;46.510;6.686;2022-08-14T01:09:58;1.75;;;1.65;;
57643;SDS011;43474;46.510;6.686;2022-08-14T01:12:29;2.05;;;1.83;;
57643;SDS011;43474;46.510;6.686;2022-08-14T01:14:56;1.98;;;1.88;;
57643;SDS011;43474;46.510;6.686;2022-08-14T01:17:23;3.22;;;1.80;;
57643;SDS011;43474;46.510;6.686;2022-08-14T01:20:09;1.75;;;1.60;;
57643;SDS011;43474;46.510;6.686;2022-08-14T01:22:54;2.28;;;1.98;;
57643;SDS011;43474;46.510;6.686;2022-08-14T01:25:19;3.42;;;1.90;;
57643;SDS011;43474;46.510;6.686;2022-08-14T01:27:45;1.85;;;1.75;;
57643;SDS011;43474;46.510;6.686;2022-08-14T01:30:11;2.15;;;1.58;;
57643;SDS011;43474;46.510;6.686;2022-08-14T01:32:37;2.47;;;1.50;;
57643;SDS011;43474;46.510;6.686;2022-08-14T01:35:03;2.90;;;2.00;;
57643;SDS011;43474;46.510;6.686;2022-08-14T01:37:32;3.00;;;2.10;;
57643;SDS011;43474;46.510;6.686;2022-08-14T01:39:58;3.47;;;1.85;;
57643;SDS011;43474;46.510;6.686;2022-08-14T01:42:25;2.33;;;1.98;;
57643;SDS011;43474;46.510;6.686;2022-08-14T01:44:53;2.60;;;2.00;;
57643;SDS011;43474;46.510;6.686;2022-08-14T01:47:19;2.53;;;1.58;;
57643;SDS011;43474;46.510;6.686;2022-08-14T01:49:45;3.17;;;2.00;;
57643;SDS011;43474;46.510;6.686;2022-08-14T01:52:11;4.63;;;1.95;;
57643;SDS011;43474;46.510;6.686;2022-08-14T01:54:37;3.45;;;2.00;;
57643;SDS011;43474;46.510;6.686;2022-08-14T01:57:03;2.17;;;1.70;;
57643;SDS011;43474;46.510;6.686;2022-08-14T01:59:30;3.08;;;1.80;;
57643;SDS011;43474;46.510;6.686;2022-08-14T02:02:01;2.97;;;2.17;;
57643;SDS011;43474;46.510;6.686;2022-08-14T02:04:36;2.10;;;1.90;;
57643;SDS011;43474;46.510;6.686;2022-08-14T02:07:03;2.22;;;2.03;;
57643;SDS011;43474;46.510;6.686;2022-08-14T02:09:29;2.28;;;2.08;;
57643;SDS011;43474;46.510;6.686;2022-08-14T02:11:59;1.92;;;1.80;;
57643;SDS011;43474;46.510;6.686;2022-08-14T02:14:26;2.20;;;2.00;;
57643;SDS011;43474;46.510;6.686;2022-08-14T02:16:52;2.67;;;1.90;;
57643;SDS011;43474;46.510;6.686;2022-08-14T02:19:20;2.20;;;2.00;;
57643;SDS011;43474;46.510;6.686;2022-08-14T02:21:49;4.00;;;2.10;;
57643;SDS011;43474;46.510;6.686;2022-08-14T02:24:19;3.00;;;2.10;;
57643;SDS011;43474;46.510;6.686;2022-08-14T02:26:47;2.50;;;2.25;;
57643;SDS011;43474;46.510;6.686;2022-08-14T02:29:16;3.35;;;2.30;;
57643;SDS011;43474;46.510;6.686;2022-08-14T02:31:44;4.75;;;2.30;;
57643;SDS011;43474;46.510;6.686;2022-08-14T02:34:17;4.57;;;2.15;;
57643;SDS011;43474;46.510;6.686;2022-08-14T02:36:47;7.47;;;2.10;;
57643;SDS011;43474;46.510;6.686;2022-08-14T02:39:17;2.22;;;2.03;;
57643;SDS011;43474;46.510;6.686;2022-08-14T02:41:43;2.33;;;2.10;;
57643;SDS011;43474;46.510;6.686;2022-08-14T02:44:16;4.55;;;1.90;;
57643;SDS011;43474;46.510;6.686;2022-08-14T02:46:45;2.03;;;1.83;;
57643;SDS011;43474;46.510;6.686;2022-08-14T02:49:11;2.63;;;2.20;;
57643;SDS011;43474;46.510;6.686;2022-08-14T02:51:36;6.32;;;2.33;;
57643;SDS011;43474;46.510;6.686;2022-08-14T02:54:03;2.22;;;2.03;;
57643;SDS011;43474;46.510;6.686;2022-08-14T02:56:31;2.50;;;2.10;;
57643;SDS011;43474;46.510;6.686;2022-08-14T02:58:57;2.50;;;1.90;;
57643;SDS011;43474;46.510;6.686;2022-08-14T03:01:26;3.55;;;2.33;;
57643;SDS011;43474;46.510;6.686;2022-08-14T03:03:53;2.30;;;2.10;;
57643;SDS011;43474;46.510;6.686;2022-08-14T03:06:20;2.75;;;1.98;;
57643;SDS011;43474;46.510;6.686;2022-08-14T03:08:48;3.92;;;1.95;;
57643;SDS011;43474;46.510;6.686;2022-08-14T03:11:14;2.42;;;2.22;;
57643;SDS011;43474;46.510;6.686;2022-08-14T03:13:43;2.40;;;2.20;;
57643;SDS011;43474;46.510;6.686;2022-08-14T03:16:13;3.50;;;1.92;;
57643;SDS011;43474;46.510;6.686;2022-08-14T03:18:43;2.35;;;2.10;;
57643;SDS011;43474;46.510;6.686;2022-08-14T03:21:11;2.30;;;2.10;;
57643;SDS011;43474;46.510;6.686;2022-08-14T03:23:39;2.83;;;2.00;;
57643;SDS011;43474;46.510;6.686;2022-08-14T03:26:07;3.58;;;2.10;;
57643;SDS011;43474;46.510;6.686;2022-08-14T03:31:07;3.13;;;2.05;;
57643;SDS011;43474;46.510;6.686;2022-08-14T03:33:34;2.33;;;2.13;;
57643;SDS011;43474;46.510;6.686;2022-08-14T03:36:02;2.67;;;2.20;;
57643;SDS011;43474;46.510;6.686;2022-08-14T03:38:32;4.53;;;2.03;;
57643;SDS011;43474;46.510;6.686;2022-08-14T03:40:58;4.28;;;2.20;;
57643;SDS011;43474;46.510;6.686;2022-08-14T03:43:23;2.70;;;2.40;;
57643;SDS011;43474;46.510;6.686;2022-08-14T03:45:49;2.97;;;2.22;;
57643;SDS011;43474;46.510;6.686;2022-08-14T03:48:15;2.90;;;2.50;;
57643;SDS011;43474;46.510;6.686;2022-08-14T03:50:46;2.85;;;2.28;;
57643;SDS011;43474;46.510;6.686;2022-08-14T03:53:13;4.38;;;2.28;;
57643;SDS011;43474;46.510;6.686;2022-08-14T03:55:39;3.15;;;2.58;;
57643;SDS011;43474;46.510;6.686;2022-08-14T03:58:06;3.08;;;2.55;;
57643;SDS011;43474;46.510;6.686;2022-08-14T04:00:32;2.72;;;2.45;;
57643;SDS011;43474;46.510;6.686;2022-08-14T04:03:00;3.80;;;2.85;;
57643;SDS011;43474;46.510;6.686;2022-08-14T04:05:27;2.67;;;2.47;;
57643;SDS011;43474;46.510;6.686;2022-08-14T04:07:53;3.50;;;2.40;;
57643;SDS011;43474;46.510;6.686;2022-08-14T04:10:18;2.97;;;2.35;;
57643;SDS011;43474;46.510;6.686;2022-08-14T04:12:44;3.38;;;2.35;;
57643;SDS011;43474;46.510;6.686;2022-08-14T04:15:10;2.83;;;2.40;;
57643;SDS011;43474;46.510;6.686;2022-08-14T04:17:36;2.90;;;2.60;;
57643;SDS011;43474;46.510;6.686;2022-08-14T04:20:03;2.72;;;2.25;;
57643;SDS011;43474;46.510;6.686;2022-08-14T04:22:30;2.60;;;2.40;;
57643;SDS011;43474;46.510;6.686;2022-08-14T04:24:56;2.50;;;2.30;;
57643;SDS011;43474;46.510;6.686;2022-08-14T04:27:23;3.00;;;2.13;;
57643;SDS011;43474;46.510;6.686;2022-08-14T04:29:51;2.92;;;2.40;;
57643;SDS011;43474;46.510;6.686;2022-08-14T04:32:18;6.15;;;2.30;;
57643;SDS011;43474;46.510;6.686;2022-08-14T04:34:44;2.78;;;2.28;;
57643;SDS011;43474;46.510;6.686;2022-08-14T04:37:10;3.83;;;2.22;;
57643;SDS011;43474;46.510;6.686;2022-08-14T04:39:54;2.63;;;2.20;;
57643;SDS011;43474;46.510;6.686;2022-08-14T04:42:39;2.35;;;2.13;;
57643;SDS011;43474;46.510;6.686;2022-08-14T04:45:25;3.95;;;2.80;;
57643;SDS011;43474;46.510;6.686;2022-08-14T04:48:00;2.47;;;2.13;;
57643;SDS011;43474;46.510;6.686;2022-08-14T04:50:41;2.58;;;2.38;;
57643;SDS011;43474;46.510;6.686;2022-08-14T04:53:10;2.65;;;2.40;;
57643;SDS011;43474;46.510;6.686;2022-08-14T04:55:38;2.65;;;2.45;;
57643;SDS011;43474;46.510;6.686;2022-08-14T04:58:05;2.83;;;2.25;;
57643;SDS011;43474;46.510;6.686;2022-08-14T05:00:31;3.58;;;2.50;;
57643;SDS011;43474;46.510;6.686;2022-08-14T05:02:57;2.50;;;2.30;;
57643;SDS011;43474;46.510;6.686;2022-08-14T05:05:23;4.55;;;2.63;;
57643;SDS011;43474;46.510;6.686;2022-08-14T05:07:49;2.33;;;2.13;;
57643;SDS011;43474;46.510;6.686;2022-08-14T05:10:16;2.72;;;2.47;;
57643;SDS011;43474;46.510;6.686;2022-08-14T05:12:50;5.47;;;2.45;;
57643;SDS011;43474;46.510;6.686;2022-08-14T05:15:17;11.95;;;3.00;;
57643;SDS011;43474;46.510;6.686;2022-08-14T05:17:45;3.05;;;2.75;;
57643;SDS011;43474;46.510;6.686;2022-08-14T05:20:11;3.42;;;2.40;;
57643;SDS011;43474;46.510;6.686;2022-08-14T05:22:37;2.40;;;2.20;;
57643;SDS011;43474;46.510;6.686;2022-08-14T05:25:03;6.22;;;3.10;;
57643;SDS011;43474;46.510;6.686;2022-08-14T05:27:29;2.67;;;2.17;;
57643;SDS011;43474;46.510;6.686;2022-08-14T05:29:54;3.08;;;2.40;;
57643;SDS011;43474;46.510;6.686;2022-08-14T05:32:21;2.60;;;2.40;;
57643;SDS011;43474;46.510;6.686;2022-08-14T05:34:47;2.75;;;2.50;;
57643;SDS011;43474;46.510;6.686;2022-08-14T05:37:13;2.75;;;2.35;;
57643;SDS011;43474;46.510;6.686;2022-08-14T05:39:39;2.78;;;2.42;;
57643;SDS011;43474;46.510;6.686;2022-08-14T05:42:06;3.30;;;2.40;;
57643;SDS011;43474;46.510;6.686;2022-08-14T05:44:32;2.65;;;2.28;;
57643;SDS011;43474;46.510;6.686;2022-08-14T05:46:57;4.10;;;2.63;;
57643;SDS011;43474;46.510;6.686;2022-08-14T05:49:24;3.03;;;2.42;;
57643;SDS011;43474;46.510;6.686;2022-08-14T05:51:50;3.25;;;2.08;;
57643;SDS011;43474;46.510;6.686;2022-08-14T05:54:15;2.58;;;2.38;;
57643;SDS011;43474;46.510;6.686;2022-08-14T05:56:41;2.63;;;2.30;;
57643;SDS011;43474;46.510;6.686;2022-08-14T05:59:06;2.53;;;2.33;;
57643;SDS011;43474;46.510;6.686;2022-08-14T06:01:31;2.80;;;2.60;;
57643;SDS011;43474;46.510;6.686;2022-08-14T06:03:57;3.33;;;2.50;;
57643;SDS011;43474;46.510;6.686;2022-08-14T06:06:23;2.72;;;2.45;;
57643;SDS011;43474;46.510;6.686;2022-08-14T06:08:48;5.95;;;2.45;;
57643;SDS011;43474;46.510;6.686;2022-08-14T06:11:14;4.10;;;2.58;;
57643;SDS011;43474;46.510;6.686;2022-08-14T06:13:40;3.50;;;2.40;;
57643;SDS011;43474;46.510;6.686;2022-08-14T06:16:07;2.92;;;2.60;;
57643;SDS011;43474;46.510;6.686;2022-08-14T06:18:33;2.33;;;2.13;;
57643;SDS011;43474;46.510;6.686;2022-08-14T06:21:00;2.75;;;2.47;;
57643;SDS011;43474;46.510;6.686;2022-08-14T06:23:27;3.60;;;2.42;;
57643;SDS011;43474;46.510;6.686;2022-08-14T06:25:53;3.08;;;2.40;;
57643;SDS011;43474;46.510;6.686;2022-08-14T06:28:20;2.50;;;2.30;;
57643;SDS011;43474;46.510;6.686;2022-08-14T06:30:47;3.70;;;2.50;;
57643;SDS011;43474;46.510;6.686;2022-08-14T06:33:13;2.70;;;2.50;;
57643;SDS011;43474;46.510;6.686;2022-08-14T06:35:41;2.90;;;2.60;;
57643;SDS011;43474;46.510;6.686;2022-08-14T06:38:06;2.92;;;2.63;;
57643;SDS011;43474;46.510;6.686;2022-08-14T06:40:33;2.65;;;2.45;;
57643;SDS011;43474;46.510;6.686;2022-08-14T06:43:02;2.83;;;2.42;;
57643;SDS011;43474;46.510;6.686;2022-08-14T06:45:30;4.53;;;2.80;;
57643;SDS011;43474;46.510;6.686;2022-08-14T06:47:56;2.53;;;2.33;;
57643;SDS011;43474;46.510;6.686;2022-08-14T06:50:23;3.13;;;2.50;;
57643;SDS011;43474;46.510;6.686;2022-08-14T06:52:49;3.95;;;2.20;;
57643;SDS011;43474;46.510;6.686;2022-08-14T06:55:15;3.25;;;2.55;;
57643;SDS011;43474;46.510;6.686;2022-08-14T06:57:45;3.03;;;2.35;;
57643;SDS011;43474;46.510;6.686;2022-08-14T07:00:14;3.95;;;2.40;;
57643;SDS011;43474;46.510;6.686;2022-08-14T07:02:41;3.15;;;2.60;;
57643;SDS011;43474;46.510;6.686;2022-08-14T07:05:25;4.57;;;2.25;;
57643;SDS011;43474;46.510;6.686;2022-08-14T07:08:23;3.35;;;2.40;;
57643;SDS011;43474;46.510;6.686;2022-08-14T07:10:58;3.30;;;2.40;;
57643;SDS011;43474;46.510;6.686;2022-08-14T07:13:25;2.67;;;2.47;;
57643;SDS011;43474;46.510;6.686;2022-08-14T07:15:52;2.42;;;2.22;;
57643;SDS011;43474;46.510;6.686;2022-08-14T07:18:20;4.97;;;2.55;;
57643;SDS011;43474;46.510;6.686;2022-08-14T07:20:47;2.75;;;2.13;;
57643;SDS011;43474;46.510;6.686;2022-08-14T07:23:16;2.45;;;2.08;;
57643;SDS011;43474;46.510;6.686;2022-08-14T07:25:42;5.75;;;2.80;;
57643;SDS011;43474;46.510;6.686;2022-08-14T07:28:16;3.70;;;2.65;;
57643;SDS011;43474;46.510;6.686;2022-08-14T07:30:48;3.20;;;2.28;;
57643;SDS011;43474;46.510;6.686;2022-08-14T07:33:15;2.78;;;2.58;;
57643;SDS011;43474;46.510;6.686;2022-08-14T07:35:41;3.45;;;2.35;;
57643;SDS011;43474;46.510;6.686;2022-08-14T07:38:07;4.03;;;2.28;;
57643;SDS011;43474;46.510;6.686;2022-08-14T07:40:33;3.80;;;2.20;;
57643;SDS011;43474;46.510;6.686;2022-08-14T07:42:59;5.40;;;2.70;;
57643;SDS011;43474;46.510;6.686;2022-08-14T07:45:26;3.70;;;2.20;;
57643;SDS011;43474;46.510;6.686;2022-08-14T07:47:52;2.92;;;2.47;;
57643;SDS011;43474;46.510;6.686;2022-08-14T07:50:20;3.60;;;2.35;;
57643;SDS011;43474;46.510;6.686;2022-08-14T07:52:46;2.72;;;2.50;;
57643;SDS011;43474;46.510;6.686;2022-08-14T07:55:15;4.03;;;2.30;;
57643;SDS011;43474;46.510;6.686;2022-08-14T07:57:42;5.03;;;2.15;;
57643;SDS011;43474;46.510;6.686;2022-08-14T08:00:12;4.45;;;2.10;;
57643;SDS011;43474;46.510;6.686;2022-08-14T08:02:42;4.93;;;2.30;;
57643;SDS011;43474;46.510;6.686;2022-08-14T08:05:11;2.97;;;2.35;;
57643;SDS011;43474;46.510;6.686;2022-08-14T08:07:39;2.85;;;2.42;;
57643;SDS011;43474;46.510;6.686;2022-08-14T08:10:14;2.72;;;2.10;;
57643;SDS011;43474;46.510;6.686;2022-08-14T08:12:58;2.40;;;2.20;;
57643;SDS011;43474;46.510;6.686;2022-08-14T08:15:36;2.33;;;2.13;;
57643;SDS011;43474;46.510;6.686;2022-08-14T08:18:05;3.75;;;2.55;;
57643;SDS011;43474;46.510;6.686;2022-08-14T08:20:32;3.13;;;2.40;;
57643;SDS011;43474;46.510;6.686;2022-08-14T08:23:03;2.60;;;2.40;;
57643;SDS011;43474;46.510;6.686;2022-08-14T08:25:31;2.60;;;2.28;;
57643;SDS011;43474;46.510;6.686;2022-08-14T08:28:03;3.88;;;2.30;;
57643;SDS011;43474;46.510;6.686;2022-08-14T08:30:35;4.55;;;2.38;;
57643;SDS011;43474;46.510;6.686;2022-08-14T08:33:03;2.65;;;2.42;;
57643;SDS011;43474;46.510;6.686;2022-08-14T08:35:30;2.70;;;2.50;;
57643;SDS011;43474;46.510;6.686;2022-08-14T08:38:06;3.90;;;2.95;;
57643;SDS011;43474;46.510;6.686;2022-08-14T08:40:53;3.63;;;2.50;;
57643;SDS011;43474;46.510;6.686;2022-08-14T08:43:22;5.18;;;2.80;;
57643;SDS011;43474;46.510;6.686;2022-08-14T08:45:54;4.28;;;2.50;;
57643;SDS011;43474;46.510;6.686;2022-08-14T08:48:21;3.13;;;2.80;;
57643;SDS011;43474;46.510;6.686;2022-08-14T08:50:54;3.35;;;2.70;;
57643;SDS011;43474;46.510;6.686;2022-08-14T08:53:21;5.43;;;2.30;;
57643;SDS011;43474;46.510;6.686;2022-08-14T08:55:47;3.95;;;2.60;;
57643;SDS011;43474;46.510;6.686;2022-08-14T08:58:13;3.97;;;3.10;;
57643;SDS011;43474;46.510;6.686;2022-08-14T09:00:42;3.05;;;2.70;;
57643;SDS011;43474;46.510;6.686;2022-08-14T09:03:15;4.77;;;2.87;;
57643;SDS011;43474;46.510;6.686;2022-08-14T09:05:57;4.07;;;2.50;;
57643;SDS011;43474;46.510;6.686;2022-08-14T09:08:33;6.97;;;3.08;;
57643;SDS011;43474;46.510;6.686;2022-08-14T09:11:01;4.55;;;2.97;;
57643;SDS011;43474;46.510;6.686;2022-08-14T09:13:29;3.35;;;2.53;;
57643;SDS011;43474;46.510;6.686;2022-08-14T09:15:55;3.17;;;2.78;;
57643;SDS011;43474;46.510;6.686;2022-08-14T09:18:21;4.60;;;2.90;;
57643;SDS011;43474;46.510;6.686;2022-08-14T09:20:49;5.40;;;2.58;;
57643;SDS011;43474;46.510;6.686;2022-08-14T09:23:16;5.45;;;2.95;;
57643;SDS011;43474;46.510;6.686;2022-08-14T09:25:44;4.22;;;2.85;;
57643;SDS011;43474;46.510;6.686;2022-08-14T09:28:14;2.92;;;2.60;;
57643;SDS011;43474;46.510;6.686;2022-08-14T09:30:44;2.53;;;2.30;;
57643;SDS011;43474;46.510;6.686;2022-08-14T09:38:56;3.80;;;2.70;;
57643;SDS011;43474;46.510;6.686;2022-08-14T09:44:43;3.83;;;2.50;;
57643;SDS011;43474;46.510;6.686;2022-08-14T09:47:18;5.70;;;3.17;;
57643;SDS011;43474;46.510;6.686;2022-08-14T09:49:45;4.65;;;3.17;;
57643;SDS011;43474;46.510;6.686;2022-08-14T09:52:12;4.75;;;3.33;;
57643;SDS011;43474;46.510;6.686;2022-08-14T09:54:41;6.97;;;3.15;;
57643;SDS011;43474;46.510;6.686;2022-08-14T09:57:09;3.53;;;2.85;;
57643;SDS011;43474;46.510;6.686;2022-08-14T09:59:45;4.40;;;3.58;;
57643;SDS011;43474;46.510;6.686;2022-08-14T10:02:22;4.65;;;3.38;;
57643;SDS011;43474;46.510;6.686;2022-08-14T10:07:31;4.30;;;3.65;;
57643;SDS011;43474;46.510;6.686;2022-08-14T10:09:59;6.53;;;3.55;;
57643;SDS011;43474;46.510;6.686;2022-08-14T10:12:26;5.10;;;3.60;;
57643;SDS011;43474;46.510;6.686;2022-08-14T10:17:40;9.23;;;3.67;;
57643;SDS011;43474;46.510;6.686;2022-08-14T10:20:06;6.32;;;3.90;;
57643;SDS011;43474;46.510;6.686;2022-08-14T10:22:34;5.30;;;3.60;;
57643;SDS011;43474;46.510;6.686;2022-08-14T10:25:08;5.32;;;3.72;;
57643;SDS011;43474;46.510;6.686;2022-08-14T10:27:36;3.78;;;3.47;;
57643;SDS011;43474;46.510;6.686;2022-08-14T10:30:02;5.15;;;3.85;;
57643;SDS011;43474;46.510;6.686;2022-08-14T10:32:29;5.47;;;4.15;;
57643;SDS011;43474;46.510;6.686;2022-08-14T10:35:08;10.07;;;4.00;;
57643;SDS011;43474;46.510;6.686;2022-08-14T10:37:38;4.60;;;3.60;;
57643;SDS011;43474;46.510;6.686;2022-08-14T10:40:06;7.63;;;4.07;;
57643;SDS011;43474;46.510;6.686;2022-08-14T10:42:33;4.78;;;3.60;;
57643;SDS011;43474;46.510;6.686;2022-08-14T10:45:01;6.35;;;4.50;;
57643;SDS011;43474;46.510;6.686;2022-08-14T10:47:35;5.78;;;4.10;;
57643;SDS011;43474;46.510;6.686;2022-08-14T10:50:05;5.65;;;3.90;;
57643;SDS011;43474;46.510;6.686;2022-08-14T10:52:32;7.10;;;4.40;;
57643;SDS011;43474;46.510;6.686;2022-08-14T10:57:44;7.55;;;4.80;;
57643;SDS011;43474;46.510;6.686;2022-08-14T11:00:13;6.97;;;4.90;;
57643;SDS011;43474;46.510;6.686;2022-08-14T11:02:41;7.97;;;5.27;;
57643;SDS011;43474;46.510;6.686;2022-08-14T11:05:08;7.72;;;4.68;;
57643;SDS011;43474;46.510;6.686;2022-08-14T11:07:38;6.53;;;5.00;;
57643;SDS011;43474;46.510;6.686;2022-08-14T11:10:10;6.10;;;4.57;;
57643;SDS011;43474;46.510;6.686;2022-08-14T11:12:39;9.63;;;5.05;;
57643;SDS011;43474;46.510;6.686;2022-08-14T11:15:10;8.85;;;5.35;;
57643;SDS011;43474;46.510;6.686;2022-08-14T11:17:36;9.95;;;5.45;;
57643;SDS011;43474;46.510;6.686;2022-08-14T11:20:05;6.65;;;4.93;;
57643;SDS011;43474;46.510;6.686;2022-08-14T11:22:33;8.75;;;4.72;;
57643;SDS011;43474;46.510;6.686;2022-08-14T11:25:01;7.55;;;5.18;;
57643;SDS011;43474;46.510;6.686;2022-08-14T11:27:30;6.35;;;4.05;;
57643;SDS011;43474;46.510;6.686;2022-08-14T11:30:00;5.80;;;4.28;;
57643;SDS011;43474;46.510;6.686;2022-08-14T11:32:30;8.18;;;4.38;;
57643;SDS011;43474;46.510;6.686;2022-08-14T11:34:57;6.60;;;4.53;;
57643;SDS011;43474;46.510;6.686;2022-08-14T11:37:23;6.90;;;4.03;;
57643;SDS011;43474;46.510;6.686;2022-08-14T11:39:49;4.50;;;3.78;;
57643;SDS011;43474;46.510;6.686;2022-08-14T11:42:18;5.55;;;3.75;;
57643;SDS011;43474;46.510;6.686;2022-08-14T11:44:49;6.22;;;4.00;;
57643;SDS011;43474;46.510;6.686;2022-08-14T11:47:17;4.05;;;3.42;;
57643;SDS011;43474;46.510;6.686;2022-08-14T11:49:46;4.28;;;3.08;;
57643;SDS011;43474;46.510;6.686;2022-08-14T11:52:13;3.08;;;2.67;;
57643;SDS011;43474;46.510;6.686;2022-08-14T11:54:39;3.35;;;2.60;;
57643;SDS011;43474;46.510;6.686;2022-08-14T11:57:12;4.75;;;2.50;;
57643;SDS011;43474;46.510;6.686;2022-08-14T11:59:40;3.22;;;2.72;;
57643;SDS011;43474;46.510;6.686;2022-08-14T12:02:13;4.70;;;2.47;;
57643;SDS011;43474;46.510;6.686;2022-08-14T12:04:50;4.20;;;3.10;;
57643;SDS011;43474;46.510;6.686;2022-08-14T12:07:17;4.68;;;3.13;;
57643;SDS011;43474;46.510;6.686;2022-08-14T12:09:45;5.22;;;3.50;;
57643;SDS011;43474;46.510;6.686;2022-08-14T12:12:17;4.55;;;3.45;;
57643;SDS011;43474;46.510;6.686;2022-08-14T12:14:54;4.38;;;2.75;;
57643;SDS011;43474;46.510;6.686;2022-08-14T12:17:22;4.40;;;3.45;;
57643;SDS011;43474;46.510;6.686;2022-08-14T12:19:50;4.75;;;3.80;;
57643;SDS011;43474;46.510;6.686;2022-08-14T12:25:07;7.60;;;3.88;;
57643;SDS011;43474;46.510;6.686;2022-08-14T12:30:06;4.70;;;3.10;;
57643;SDS011;43474;46.510;6.686;2022-08-14T12:32:37;3.75;;;3.30;;
57643;SDS011;43474;46.510;6.686;2022-08-14T12:35:12;4.00;;;3.00;;
57643;SDS011;43474;46.510;6.686;2022-08-14T12:37:45;5.13;;;2.97;;
57643;SDS011;43474;46.510;6.686;2022-08-14T12:40:12;4.70;;;3.53;;
57643;SDS011;43474;46.510;6.686;2022-08-14T12:42:40;4.60;;;3.38;;
57643;SDS011;43474;46.510;6.686;2022-08-14T12:45:07;4.07;;;3.20;;
57643;SDS011;43474;46.510;6.686;2022-08-14T12:47:40;4.55;;;3.40;;
57643;SDS011;43474;46.510;6.686;2022-08-14T12:50:08;4.15;;;3.17;;
57643;SDS011;43474;46.510;6.686;2022-08-14T12:55:14;5.53;;;3.00;;
57643;SDS011;43474;46.510;6.686;2022-08-14T12:57:45;4.07;;;3.25;;
57643;SDS011;43474;46.510;6.686;2022-08-14T13:00:22;3.38;;;3.08;;
57643;SDS011;43474;46.510;6.686;2022-08-14T13:02:53;3.80;;;2.60;;
57643;SDS011;43474;46.510;6.686;2022-08-14T13:05:20;3.58;;;2.97;;
57643;SDS011;43474;46.510;6.686;2022-08-14T13:07:47;8.70;;;3.35;;
57643;SDS011;43474;46.510;6.686;2022-08-14T13:10:14;6.32;;;4.20;;
57643;SDS011;43474;46.510;6.686;2022-08-14T13:12:40;4.82;;;3.25;;
57643;SDS011;43474;46.510;6.686;2022-08-14T13:15:08;3.20;;;2.90;;
57643;SDS011;43474;46.510;6.686;2022-08-14T13:17:40;4.07;;;3.10;;
57643;SDS011;43474;46.510;6.686;2022-08-14T13:20:14;4.63;;;3.53;;
57643;SDS011;43474;46.510;6.686;2022-08-14T13:22:43;5.10;;;3.22;;
57643;SDS011;43474;46.510;6.686;2022-08-14T13:25:10;3.28;;;2.90;;
57643;SDS011;43474;46.510;6.686;2022-08-14T13:27:37;4.10;;;3.05;;
57643;SDS011;43474;46.510;6.686;2022-08-14T13:30:06;4.80;;;3.42;;
57643;SDS011;43474;46.510;6.686;2022-08-14T13:32:34;3.88;;;2.97;;
57643;SDS011;43474;46.510;6.686;2022-08-14T13:35:03;5.38;;;3.17;;
57643;SDS011;43474;46.510;6.686;2022-08-14T13:37:30;4.70;;;3.08;;
57643;SDS011;43474;46.510;6.686;2022-08-14T13:39:55;3.70;;;3.10;;
57643;SDS011;43474;46.510;6.686;2022-08-14T13:42:21;4.75;;;3.33;;
57643;SDS011;43474;46.510;6.686;2022-08-14T13:44:48;3.88;;;3.45;;
57643;SDS011;43474;46.510;6.686;2022-08-14T13:49:45;6.93;;;3.28;;
57643;SDS011;43474;46.510;6.686;2022-08-14T13:52:13;3.70;;;3.00;;
57643;SDS011;43474;46.510;6.686;2022-08-14T13:54:46;3.35;;;3.05;;
57643;SDS011;43474;46.510;6.686;2022-08-14T13:57:15;3.70;;;2.70;;
57643;SDS011;43474;46.510;6.686;2022-08-14T13:59:46;3.80;;;2.75;;
57643;SDS011;43474;46.510;6.686;2022-08-14T14:02:14;4.03;;;3.10;;
57643;SDS011;43474;46.510;6.686;2022-08-14T14:04:47;3.92;;;3.15;;
57643;SDS011;43474;46.510;6.686;2022-08-14T14:07:14;5.10;;;3.20;;
57643;SDS011;43474;46.510;6.686;2022-08-14T14:09:42;4.35;;;3.20;;
57643;SDS011;43474;46.510;6.686;2022-08-14T14:12:08;5.53;;;3.22;;
57643;SDS011;43474;46.510;6.686;2022-08-14T14:14:37;3.08;;;2.78;;
57643;SDS011;43474;46.510;6.686;2022-08-14T14:17:06;4.40;;;3.17;;
57643;SDS011;43474;46.510;6.686;2022-08-14T14:19:33;4.78;;;3.10;;
57643;SDS011;43474;46.510;6.686;2022-08-14T14:21:59;5.22;;;3.45;;
57643;SDS011;43474;46.510;6.686;2022-08-14T14:24:32;3.78;;;2.88;;
57643;SDS011;43474;46.510;6.686;2022-08-14T14:26:59;3.97;;;3.10;;
57643;SDS011;43474;46.510;6.686;2022-08-14T14:29:28;3.67;;;3.20;;
57643;SDS011;43474;46.510;6.686;2022-08-14T14:31:56;3.42;;;2.80;;
57643;SDS011;43474;46.510;6.686;2022-08-14T14:34:24;3.67;;;3.10;;
57643;SDS011;43474;46.510;6.686;2022-08-14T14:36:51;3.58;;;2.95;;
57643;SDS011;43474;46.510;6.686;2022-08-14T14:39:24;3.33;;;3.03;;
57643;SDS011;43474;46.510;6.686;2022-08-14T14:41:52;4.15;;;2.97;;
57643;SDS011;43474;46.510;6.686;2022-08-14T14:44:21;3.50;;;2.92;;
57643;SDS011;43474;46.510;6.686;2022-08-14T14:46:48;4.90;;;3.40;;
57643;SDS011;43474;46.510;6.686;2022-08-14T14:49:14;5.35;;;2.90;;
57643;SDS011;43474;46.510;6.686;2022-08-14T14:51:44;5.28;;;3.97;;
57643;SDS011;43474;46.510;6.686;2022-08-14T14:54:10;3.40;;;3.03;;
57643;SDS011;43474;46.510;6.686;2022-08-14T14:56:40;5.93;;;4.20;;
57643;SDS011;43474;46.510;6.686;2022-08-14T14:59:07;3.42;;;3.10;;
57643;SDS011;43474;46.510;6.686;2022-08-14T15:01:35;4.32;;;3.20;;
57643;SDS011;43474;46.510;6.686;2022-08-14T15:04:02;4.30;;;3.60;;
57643;SDS011;43474;46.510;6.686;2022-08-14T15:06:30;3.80;;;3.28;;
57643;SDS011;43474;46.510;6.686;2022-08-14T15:08:56;3.78;;;3.47;;
57643;SDS011;43474;46.510;6.686;2022-08-14T15:11:23;3.70;;;3.10;;
57643;SDS011;43474;46.510;6.686;2022-08-14T15:13:50;4.07;;;3.17;;
57643;SDS011;43474;46.510;6.686;2022-08-14T15:16:16;3.65;;;3.15;;
57643;SDS011;43474;46.510;6.686;2022-08-14T15:18:43;5.38;;;3.72;;
57643;SDS011;43474;46.510;6.686;2022-08-14T15:21:10;4.22;;;3.33;;
57643;SDS011;43474;46.510;6.686;2022-08-14T15:23:37;6.35;;;3.40;;
57643;SDS011;43474;46.510;6.686;2022-08-14T15:26:04;9.93;;;7.70;;